createdAt,value
2023-01-29T00:02:05.686Z,74.87
2023-01-29T00:04:32.900Z,74.44
2023-01-29T00:06:59.957Z,73.57
2023-01-29T00:09:27.939Z,73.03
2023-01-29T00:11:54.701Z,72.20
2023-01-29T00:14:21.651Z,71.05
2023-01-29T00:16:48.612Z,70.94
2023-01-29T00:19:15.399Z,70.74
2023-01-29T00:21:42.160Z,70.56
2023-01-29T00:24:09.060Z,70.42
2023-01-29T00:26:35.854Z,69.55
2023-01-29T00:29:02.723Z,68.76
2023-01-29T00:31:29.836Z,68.41
2023-01-29T00:33:57.518Z,65.39
2023-01-29T00:36:26.092Z,66.94
2023-01-29T00:38:58.815Z,64.99
2023-01-29T00:41:49.367Z,65.65
2023-01-29T00:44:34.975Z,65.01
2023-01-29T00:47:02.433Z,64.85
2023-01-29T00:49:30.366Z,65.83
2023-01-29T00:52:17.226Z,65.99
2023-01-29T00:54:44.168Z,65.22
2023-01-29T00:57:11.127Z,63.79
2023-01-29T00:59:38.149Z,63.83
2023-01-29T01:02:23.928Z,63.30
2023-01-29T01:04:50.737Z,63.21
2023-01-29T01:07:17.731Z,64.28
2023-01-29T01:10:03.240Z,63.33
2023-01-29T01:12:31.261Z,63.65
2023-01-29T01:14:58.039Z,63.57
2023-01-29T01:17:24.808Z,64.27
2023-01-29T01:19:51.718Z,63.61
2023-01-29T01:22:18.830Z,63.46
2023-01-29T01:24:45.708Z,63.54
2023-01-29T01:27:13.073Z,64.23
2023-01-29T01:29:40.739Z,64.32
2023-01-29T01:32:08.053Z,64.47
2023-01-29T01:34:35.868Z,63.84
2023-01-29T01:37:02.652Z,64.18
2023-01-29T01:39:29.446Z,63.89
2023-01-29T01:41:56.489Z,63.53
2023-01-29T01:44:53.373Z,64.38
2023-01-29T01:47:26.632Z,64.32
2023-01-29T01:49:54.833Z,63.88
2023-01-29T01:52:22.130Z,64.46
2023-01-29T01:54:50.901Z,64.53
2023-01-29T01:57:24.849Z,63.80
2023-01-29T02:00:10.015Z,64.32
2023-01-29T02:03:03.339Z,64.41
2023-01-29T02:05:51.108Z,64.22
2023-01-29T02:08:49.061Z,64.39
2023-01-29T02:11:16.758Z,64.67
2023-01-29T02:13:44.480Z,63.76
2023-01-29T02:16:11.248Z,63.92
2023-01-29T02:18:39.457Z,64.10
2023-01-29T02:21:39.172Z,64.23
2023-01-29T02:24:06.081Z,64.62
2023-01-29T02:26:35.565Z,65.01
2023-01-29T02:29:26.932Z,64.62
2023-01-29T02:32:09.179Z,64.93
2023-01-29T02:35:04.439Z,64.86
2023-01-29T02:37:43.629Z,65.30
2023-01-29T02:40:29.198Z,65.88
2023-01-29T02:43:06.386Z,65.87
2023-01-29T02:45:39.581Z,66.18
2023-01-29T02:48:11.711Z,66.81
2023-01-29T02:50:45.519Z,67.16
2023-01-29T02:53:19.114Z,67.44
2023-01-29T02:55:53.365Z,67.36
2023-01-29T02:58:44.177Z,66.99
2023-01-29T03:01:23.403Z,67.02
2023-01-29T03:03:56.144Z,67.44
2023-01-29T03:06:30.212Z,67.54
2023-01-29T03:09:07.056Z,67.22
2023-01-29T03:11:48.779Z,67.11
2023-01-29T03:14:58.786Z,67.31
2023-01-29T03:17:33.577Z,66.91
2023-01-29T03:20:03.456Z,67.30
2023-01-29T03:22:31.464Z,66.74
2023-01-29T03:25:20.958Z,67.20
2023-01-29T03:28:10.762Z,65.95
2023-01-29T03:31:14.971Z,66.68
2023-01-29T03:34:09.037Z,65.79
2023-01-29T03:36:56.041Z,65.11
2023-01-29T03:39:29.814Z,65.17
2023-01-29T03:42:21.750Z,64.17
2023-01-29T03:44:54.699Z,64.67
2023-01-29T03:47:40.552Z,64.54
2023-01-29T03:50:11.627Z,65.01
2023-01-29T03:53:08.639Z,64.74
2023-01-29T03:55:35.431Z,64.69
2023-01-29T03:58:25.579Z,65.01
2023-01-29T04:01:03.610Z,64.77
2023-01-29T04:03:33.783Z,65.16
2023-01-29T04:06:05.565Z,65.29
2023-01-29T04:08:47.798Z,65.19
2023-01-29T04:11:18.562Z,64.88
2023-01-29T04:13:46.721Z,64.51
2023-01-29T04:16:29.101Z,64.43
2023-01-29T04:19:19.183Z,64.55
2023-01-29T04:21:49.120Z,63.97
2023-01-29T04:24:16.750Z,63.85
2023-01-29T04:26:58.534Z,64.35
2023-01-29T04:29:31.517Z,63.02
2023-01-29T04:32:13.772Z,62.49
2023-01-29T04:34:51.644Z,62.70
2023-01-29T04:37:32.726Z,62.22
2023-01-29T04:40:13.877Z,61.55
2023-01-29T04:42:55.186Z,62.16
2023-01-29T04:45:31.834Z,62.56
2023-01-29T04:48:21.375Z,61.98
2023-01-29T04:51:06.193Z,62.57
2023-01-29T04:53:45.978Z,62.55
2023-01-29T04:56:24.675Z,62.51
2023-01-29T04:59:17.669Z,62.89
2023-01-29T05:01:45.005Z,62.26
2023-01-29T05:04:14.875Z,62.32
2023-01-29T05:06:42.649Z,62.77
2023-01-29T05:09:09.897Z,63.41
2023-01-29T05:11:37.631Z,63.12
2023-01-29T05:14:08.627Z,62.64
2023-01-29T05:16:43.072Z,63.22
2023-01-29T05:19:13.021Z,63.32
2023-01-29T05:21:41.596Z,63.46
2023-01-29T05:24:16.818Z,63.88
2023-01-29T05:27:05.756Z,63.85
2023-01-29T05:29:32.752Z,63.08
2023-01-29T05:31:59.771Z,63.66
2023-01-29T05:34:26.616Z,63.84
2023-01-29T05:36:53.634Z,64.15
2023-01-29T05:39:20.546Z,63.98
2023-01-29T05:41:47.693Z,64.47
2023-01-29T05:44:14.431Z,64.16
2023-01-29T05:46:41.444Z,64.01
2023-01-29T05:49:08.641Z,64.54
2023-01-29T05:51:36.334Z,64.67
2023-01-29T05:54:03.983Z,64.66
2023-01-29T05:56:31.571Z,65.39
2023-01-29T05:58:58.657Z,65.32
2023-01-29T06:01:28.277Z,64.98
2023-01-29T06:03:55.506Z,65.20
2023-01-29T06:06:22.494Z,65.11
2023-01-29T06:08:49.500Z,65.92
2023-01-29T06:11:18.245Z,65.92
2023-01-29T06:13:45.859Z,65.88
2023-01-29T06:16:14.010Z,66.21
2023-01-29T06:18:41.709Z,66.43
2023-01-29T06:21:11.176Z,66.59
2023-01-29T06:23:39.439Z,66.05
2023-01-29T06:26:09.163Z,66.03
2023-01-29T06:28:36.134Z,66.19
2023-01-29T06:31:22.197Z,66.82
2023-01-29T06:33:52.263Z,67.01
2023-01-29T06:36:19.500Z,67.04
2023-01-29T06:38:47.245Z,67.57
2023-01-29T06:41:17.207Z,66.67
2023-01-29T06:43:45.032Z,66.81
2023-01-29T06:46:12.153Z,67.44
2023-01-29T06:48:38.980Z,67.18
2023-01-29T06:51:08.273Z,67.74
2023-01-29T06:53:36.476Z,67.39
2023-01-29T06:56:04.068Z,67.39
2023-01-29T06:58:31.060Z,67.27
2023-01-29T07:01:19.699Z,66.96
2023-01-29T07:03:56.512Z,67.41
2023-01-29T07:06:28.981Z,67.38
2023-01-29T07:08:56.040Z,67.50
2023-01-29T07:11:22.772Z,68.08
2023-01-29T07:13:49.450Z,67.30
2023-01-29T07:16:16.256Z,67.76
2023-01-29T07:18:42.996Z,68.00
2023-01-29T07:21:09.818Z,68.06
2023-01-29T07:23:36.682Z,68.02
2023-01-29T07:26:06.142Z,67.95
2023-01-29T07:28:37.896Z,67.71
2023-01-29T07:31:05.827Z,67.78
2023-01-29T07:33:45.896Z,67.96
2023-01-29T07:36:16.168Z,67.87
2023-01-29T07:38:50.261Z,68.12
2023-01-29T07:41:17.187Z,68.11
2023-01-29T07:43:50.049Z,67.90
2023-01-29T07:46:17.626Z,67.86
2023-01-29T07:48:44.487Z,68.55
2023-01-29T07:51:11.450Z,67.97
2023-01-29T07:53:38.709Z,68.13
2023-01-29T07:56:05.726Z,68.34
2023-01-29T07:58:34.398Z,68.52
2023-01-29T08:01:07.049Z,68.16
2023-01-29T08:03:33.780Z,68.13
2023-01-29T08:06:00.492Z,68.48
2023-01-29T08:08:27.363Z,68.77
2023-01-29T08:10:54.077Z,68.05
2023-01-29T08:13:21.033Z,68.17
2023-01-29T08:15:47.968Z,67.86
2023-01-29T08:18:14.917Z,68.32
2023-01-29T08:20:41.689Z,68.50
2023-01-29T08:23:13.588Z,68.00
2023-01-29T08:25:40.416Z,69.00
2023-01-29T08:28:07.477Z,69.15
2023-01-29T08:30:34.786Z,69.19
2023-01-29T08:33:03.306Z,69.05
2023-01-29T08:35:30.488Z,68.34
2023-01-29T08:37:59.965Z,68.31
2023-01-29T08:40:28.717Z,68.61
2023-01-29T08:43:04.089Z,68.48
2023-01-29T08:45:38.104Z,69.19
2023-01-29T08:48:07.670Z,68.70
2023-01-29T08:50:35.172Z,68.66
2023-01-29T08:53:04.555Z,68.56
2023-01-29T08:55:31.528Z,68.16
2023-01-29T08:57:58.437Z,67.97
2023-01-29T09:00:25.591Z,68.34
2023-01-29T09:02:52.537Z,68.07
2023-01-29T09:05:22.124Z,68.36
2023-01-29T09:07:48.878Z,69.07
2023-01-29T09:10:16.149Z,69.19
2023-01-29T09:12:43.077Z,69.04
2023-01-29T09:15:10.298Z,68.71
2023-01-29T09:17:37.000Z,68.96
2023-01-29T09:20:06.132Z,68.41
2023-01-29T09:22:32.952Z,68.59
2023-01-29T09:24:59.771Z,68.31
2023-01-29T09:27:26.654Z,68.55
2023-01-29T09:29:53.351Z,68.49
2023-01-29T09:32:49.669Z,68.36
2023-01-29T09:35:07.120Z,68.35
2023-01-29T09:37:33.884Z,67.99
2023-01-29T09:40:00.608Z,69.06
2023-01-29T09:42:48.658Z,68.85
2023-01-29T09:45:21.721Z,68.81
2023-01-29T09:47:48.876Z,69.53
2023-01-29T09:50:21.940Z,69.64
2023-01-29T09:53:05.465Z,69.37
2023-01-29T09:55:37.283Z,69.37
2023-01-29T09:58:14.269Z,69.72
2023-01-29T10:00:54.963Z,69.66
2023-01-29T10:03:27.176Z,69.90
2023-01-29T10:06:06.359Z,70.06
2023-01-29T10:08:44.957Z,70.47
2023-01-29T10:11:39.179Z,70.58
2023-01-29T10:14:14.949Z,69.96
2023-01-29T10:17:12.022Z,70.03
2023-01-29T10:19:46.614Z,70.06
2023-01-29T10:22:23.253Z,69.63
2023-01-29T10:24:57.559Z,69.38
2023-01-29T10:27:32.053Z,69.36
2023-01-29T10:30:00.952Z,69.92
2023-01-29T10:32:29.082Z,69.63
2023-01-29T10:35:02.018Z,69.80
2023-01-29T10:37:38.865Z,70.34
2023-01-29T10:40:46.893Z,70.08
2023-01-29T10:43:38.108Z,70.10
2023-01-29T10:46:23.843Z,70.45
2023-01-29T10:49:05.558Z,70.37
2023-01-29T10:52:05.444Z,70.54
2023-01-29T10:55:02.266Z,70.56
2023-01-29T10:57:40.737Z,70.95
2023-01-29T11:00:23.829Z,70.70
2023-01-29T11:02:51.724Z,70.68
2023-01-29T11:05:46.439Z,70.60
2023-01-29T11:08:18.365Z,71.22
2023-01-29T11:11:05.997Z,71.52
2023-01-29T11:13:40.592Z,71.78
2023-01-29T11:16:09.239Z,71.70
2023-01-29T11:18:52.669Z,71.93
2023-01-29T11:21:19.785Z,72.27
2023-01-29T11:23:46.967Z,72.49
2023-01-29T11:26:18.902Z,72.31
2023-01-29T11:28:48.323Z,72.63
2023-01-29T11:31:17.983Z,73.58
2023-01-29T11:33:46.022Z,73.47
2023-01-29T11:36:32.906Z,73.85
2023-01-29T11:39:12.437Z,73.00
2023-01-29T11:41:49.866Z,73.29
2023-01-29T11:44:22.254Z,73.74
2023-01-29T11:46:49.729Z,74.08
2023-01-29T11:49:31.645Z,74.26
2023-01-29T11:52:02.083Z,75.43
2023-01-29T11:54:31.469Z,76.67
2023-01-29T11:56:58.914Z,76.50
2023-01-29T11:59:44.382Z,76.64
2023-01-29T12:02:23.873Z,76.15
2023-01-29T12:04:51.453Z,75.53
2023-01-29T12:07:19.590Z,75.16
2023-01-29T12:09:54.924Z,75.43
2023-01-29T12:12:32.519Z,75.15
2023-01-29T12:15:17.259Z,75.63
2023-01-29T12:17:52.393Z,75.11
2023-01-29T12:20:25.804Z,74.78
2023-01-29T12:23:14.476Z,75.01
2023-01-29T12:25:53.330Z,75.19
2023-01-29T12:28:57.064Z,75.38
2023-01-29T12:31:37.720Z,75.78
2023-01-29T12:34:25.055Z,75.37
2023-01-29T12:37:13.665Z,75.47
2023-01-29T12:39:40.634Z,75.88
2023-01-29T12:42:22.716Z,76.04
2023-01-29T12:44:59.477Z,76.29
2023-01-29T12:47:48.354Z,76.30
2023-01-29T12:50:33.069Z,76.50
2023-01-29T12:53:23.353Z,76.50
2023-01-29T12:55:59.257Z,76.45
2023-01-29T12:58:50.806Z,76.20
2023-01-29T13:01:27.693Z,76.36
2023-01-29T13:04:06.291Z,76.43
2023-01-29T13:06:44.428Z,76.13
2023-01-29T13:09:19.559Z,76.30
2023-01-29T13:12:13.371Z,76.28
2023-01-29T13:14:52.032Z,77.01
2023-01-29T13:17:28.853Z,77.56
2023-01-29T13:20:00.657Z,77.68
2023-01-29T13:22:36.887Z,77.60
2023-01-29T13:25:05.869Z,77.66
2023-01-29T13:27:35.332Z,77.78
2023-01-29T13:30:03.064Z,77.82
2023-01-29T13:32:36.004Z,77.89
2023-01-29T13:35:12.414Z,77.99
2023-01-29T13:37:49.234Z,78.43
2023-01-29T13:40:30.484Z,78.44
2023-01-29T13:43:00.333Z,78.79
2023-01-29T13:45:42.267Z,78.92
2023-01-29T13:48:19.965Z,79.05
2023-01-29T13:50:47.872Z,78.85
2023-01-29T13:53:25.233Z,79.24
2023-01-29T13:55:52.248Z,79.57
2023-01-29T13:58:31.181Z,78.70
2023-01-29T14:00:59.248Z,79.44
2023-01-29T14:03:26.381Z,79.82
2023-01-29T14:06:00.779Z,79.74
2023-01-29T14:08:45.313Z,79.94
2023-01-29T14:11:15.316Z,79.96
2023-01-29T14:13:44.587Z,79.90
2023-01-29T14:16:14.520Z,79.86
2023-01-29T14:18:55.496Z,80.07
2023-01-29T14:21:28.291Z,80.17
2023-01-29T14:23:59.342Z,79.62
2023-01-29T14:26:33.282Z,80.07
2023-01-29T14:32:08.113Z,79.92
2023-01-29T14:32:42.555Z,79.81
2023-01-29T14:34:47.925Z,80.09
2023-01-29T14:37:14.884Z,80.80
2023-01-29T14:39:47.729Z,80.50
2023-01-29T14:42:20.549Z,80.43
2023-01-29T14:44:48.622Z,80.57
2023-01-29T14:47:27.557Z,80.67
2023-01-29T14:49:57.444Z,80.58
2023-01-29T14:52:35.855Z,80.82
2023-01-29T14:55:07.133Z,81.11
2023-01-29T14:57:35.909Z,80.92
2023-01-29T15:00:06.510Z,81.09
2023-01-29T15:02:41.668Z,81.20
2023-01-29T15:05:14.142Z,81.55
2023-01-29T15:07:58.523Z,81.43
2023-01-29T15:10:31.332Z,81.08
2023-01-29T15:13:04.999Z,81.26
2023-01-29T15:15:47.676Z,80.95
2023-01-29T15:18:28.783Z,80.85
2023-01-29T15:21:05.733Z,81.13
2023-01-29T15:23:34.387Z,81.86
2023-01-29T15:26:03.450Z,81.38
2023-01-29T15:28:32.220Z,81.52
2023-01-29T15:31:01.609Z,81.36
2023-01-29T15:33:29.050Z,81.62
2023-01-29T15:36:08.932Z,81.40
2023-01-29T15:38:36.398Z,81.70
2023-01-29T15:41:20.844Z,82.02
2023-01-29T15:43:57.505Z,81.93
2023-01-29T15:46:36.529Z,82.34
2023-01-29T15:49:08.779Z,82.26
2023-01-29T15:51:37.355Z,82.45
2023-01-29T15:54:09.792Z,83.21
2023-01-29T15:56:40.200Z,83.44
2023-01-29T15:59:09.675Z,83.66
2023-01-29T16:01:36.795Z,83.56
2023-01-29T16:04:04.316Z,83.50
2023-01-29T16:06:37.531Z,83.67
2023-01-29T16:09:05.465Z,84.15
2023-01-29T16:11:34.166Z,83.76
2023-01-29T16:14:02.891Z,83.56
2023-01-29T16:16:30.042Z,83.77
2023-01-29T16:19:00.852Z,83.66
2023-01-29T16:21:40.615Z,83.71
2023-01-29T16:24:14.020Z,83.69
2023-01-29T16:26:47.571Z,84.02
2023-01-29T16:29:17.224Z,83.60
2023-01-29T16:31:47.547Z,83.83
2023-01-29T16:34:28.842Z,84.04
2023-01-29T16:36:56.982Z,83.88
2023-01-29T16:39:28.026Z,83.78
2023-01-29T16:42:09.717Z,83.95
2023-01-29T16:44:39.232Z,83.69
2023-01-29T16:47:14.648Z,83.98
2023-01-29T16:49:50.222Z,83.58
2023-01-29T16:52:24.490Z,83.58
2023-01-29T16:54:52.653Z,83.48
2023-01-29T16:57:26.095Z,83.37
2023-01-29T16:59:57.589Z,83.45
2023-01-29T17:02:33.482Z,83.34
2023-01-29T17:05:05.658Z,83.72
2023-01-29T17:07:34.444Z,83.27
2023-01-29T17:13:05.006Z,83.04
2023-01-29T17:15:44.108Z,83.25
2023-01-29T17:18:25.917Z,82.90
2023-01-29T17:20:53.888Z,83.28
2023-01-29T17:23:22.626Z,82.85
2023-01-29T17:25:49.753Z,83.23
2023-01-29T17:28:18.044Z,82.89
2023-01-29T17:30:56.616Z,82.78
2023-01-29T17:33:32.100Z,83.29
2023-01-29T17:35:58.988Z,83.21
2023-01-29T17:38:26.794Z,83.27
2023-01-29T17:40:56.397Z,83.41
2023-01-29T17:43:23.832Z,83.15
2023-01-29T17:45:53.913Z,83.58
2023-01-29T17:48:30.186Z,83.88
2023-01-29T17:51:03.363Z,83.65
2023-01-29T17:53:44.374Z,83.84
2023-01-29T17:56:18.299Z,83.32
2023-01-29T17:58:45.236Z,83.59
2023-01-29T18:01:12.088Z,83.49
2023-01-29T18:03:38.918Z,83.68
2023-01-29T18:06:09.935Z,83.93
2023-01-29T18:08:39.425Z,84.10
2023-01-29T18:11:06.406Z,84.15
2023-01-29T18:13:35.965Z,84.36
2023-01-29T18:16:03.005Z,84.79
2023-01-29T18:18:29.963Z,84.99
2023-01-29T18:20:56.722Z,84.93
2023-01-29T18:23:24.932Z,84.97
2023-01-29T18:25:52.989Z,84.90
2023-01-29T18:28:20.134Z,84.91
2023-01-29T18:30:47.827Z,84.95
2023-01-29T18:33:16.048Z,84.77
2023-01-29T18:35:48.230Z,84.88
2023-01-29T18:38:15.794Z,84.39
2023-01-29T18:40:43.281Z,84.38
2023-01-29T18:43:10.118Z,84.18
2023-01-29T18:45:37.059Z,83.86
2023-01-29T18:48:10.235Z,83.92
2023-01-29T18:50:40.598Z,83.72
2023-01-29T18:53:07.766Z,83.29
2023-01-29T18:55:39.908Z,83.76
2023-01-29T18:58:27.893Z,84.42
2023-01-29T19:01:07.171Z,84.36
2023-01-29T19:03:36.434Z,84.90
2023-01-29T19:06:06.635Z,85.71
2023-01-29T19:08:34.475Z,86.06
2023-01-29T19:11:03.986Z,86.40
2023-01-29T19:13:32.115Z,86.50
2023-01-29T19:15:59.232Z,86.62
2023-01-29T19:18:27.509Z,86.71
2023-01-29T19:20:54.889Z,86.68
2023-01-29T19:23:22.133Z,86.86
2023-01-29T19:25:49.098Z,86.50
2023-01-29T19:28:15.978Z,86.08
2023-01-29T19:30:42.912Z,86.53
2023-01-29T19:33:10.659Z,86.57
2023-01-29T19:35:37.522Z,85.44
2023-01-29T19:38:04.499Z,85.74
2023-01-29T19:40:31.817Z,85.88
2023-01-29T19:42:58.790Z,85.50
2023-01-29T19:45:48.968Z,85.77
2023-01-29T19:48:15.010Z,85.69
2023-01-29T19:50:42.444Z,85.75
2023-01-29T19:53:09.850Z,85.56
2023-01-29T19:55:37.085Z,85.31
2023-01-29T19:58:04.789Z,85.33
2023-01-29T20:00:31.724Z,85.57
2023-01-29T20:02:58.655Z,85.63
2023-01-29T20:05:27.038Z,85.17
2023-01-29T20:07:54.097Z,85.71
2023-01-29T20:10:21.248Z,85.74
2023-01-29T20:12:48.108Z,86.50
2023-01-29T20:15:15.724Z,86.65
2023-01-29T20:17:43.583Z,87.35
2023-01-29T20:20:11.787Z,87.63
2023-01-29T20:22:38.806Z,88.17
2023-01-29T20:25:06.012Z,88.77
2023-01-29T20:27:32.756Z,89.01
2023-01-29T20:29:59.734Z,88.94
2023-01-29T20:32:26.674Z,88.26
2023-01-29T20:34:53.576Z,88.24
2023-01-29T20:37:20.554Z,88.15
2023-01-29T20:39:47.339Z,87.66
2023-01-29T20:42:14.276Z,87.30
2023-01-29T20:44:41.164Z,87.41
2023-01-29T20:47:08.525Z,86.95
2023-01-29T20:49:35.338Z,86.65
2023-01-29T20:52:02.244Z,86.74
2023-01-29T20:54:30.068Z,86.87
2023-01-29T20:56:57.134Z,86.37
2023-01-29T20:59:24.012Z,86.15
2023-01-29T21:01:50.859Z,86.40
2023-01-29T21:04:17.641Z,86.31
2023-01-29T21:06:44.513Z,86.33
2023-01-29T21:09:11.216Z,86.55
2023-01-29T21:11:38.023Z,86.39
2023-01-29T21:14:05.061Z,87.00
2023-01-29T21:16:31.883Z,86.80
2023-01-29T21:18:59.394Z,86.58
2023-01-29T21:21:26.816Z,86.98
2023-01-29T21:23:54.004Z,86.76
2023-01-29T21:26:21.532Z,86.70
2023-01-29T21:28:48.545Z,87.21
2023-01-29T21:31:16.970Z,87.79
2023-01-29T21:33:44.041Z,87.50
2023-01-29T21:36:11.157Z,87.49
2023-01-29T21:38:38.762Z,87.42
2023-01-29T21:41:08.737Z,87.67
2023-01-29T21:43:36.458Z,87.65
2023-01-29T21:46:11.740Z,87.41
2023-01-29T21:48:39.595Z,87.78
2023-01-29T21:51:07.680Z,88.18
2023-01-29T21:53:34.995Z,87.96
2023-01-29T21:56:03.044Z,87.95
2023-01-29T21:58:30.015Z,87.23
2023-01-29T22:00:56.986Z,87.53
2023-01-29T22:03:45.537Z,87.52
2023-01-29T22:06:13.692Z,86.64
2023-01-29T22:08:40.383Z,87.22
2023-01-29T22:11:08.153Z,87.31
2023-01-29T22:13:34.899Z,87.60
2023-01-29T22:16:01.762Z,87.35
2023-01-29T22:18:28.488Z,87.60
2023-01-29T22:20:56.720Z,86.79
2023-01-29T22:23:24.239Z,86.96
2023-01-29T22:25:51.059Z,86.47
2023-01-29T22:28:18.667Z,86.67
2023-01-29T22:30:45.891Z,86.62
2023-01-29T22:33:12.714Z,86.69
2023-01-29T22:35:39.482Z,86.10
2023-01-29T22:38:06.528Z,86.81
2023-01-29T22:40:33.305Z,87.71
2023-01-29T22:43:00.088Z,88.20
2023-01-29T22:45:27.332Z,89.03
2023-01-29T22:47:54.105Z,88.99
2023-01-29T22:50:21.023Z,89.87
2023-01-29T22:52:53.997Z,89.39
2023-01-29T22:55:21.187Z,88.95
2023-01-29T22:57:51.016Z,89.33
2023-01-29T23:00:18.652Z,89.24
2023-01-29T23:02:49.454Z,89.46
2023-01-29T23:05:16.169Z,89.63
2023-01-29T23:07:42.999Z,90.05
2023-01-29T23:10:16.677Z,90.54
2023-01-29T23:12:43.549Z,91.03
2023-01-29T23:15:10.379Z,91.02
2023-01-29T23:17:39.542Z,91.14
2023-01-29T23:20:06.985Z,91.41
2023-01-29T23:22:33.695Z,91.47
2023-01-29T23:25:02.709Z,91.44
2023-01-29T23:27:29.471Z,91.41
2023-01-29T23:29:56.156Z,91.64
2023-01-29T23:32:22.994Z,91.74
2023-01-29T23:34:49.717Z,91.37
2023-01-29T23:37:16.485Z,91.44
2023-01-29T23:39:43.338Z,91.33
2023-01-29T23:42:10.073Z,91.37
2023-01-29T23:44:36.963Z,91.16
2023-01-29T23:47:03.824Z,91.27
2023-01-29T23:49:30.493Z,90.74
2023-01-29T23:51:57.544Z,90.44
2023-01-29T23:54:24.349Z,90.22
2023-01-29T23:56:51.068Z,90.34
2023-01-29T23:59:18.246Z,89.83
